Elm Grove, Louisiana
Current Conditions -  °F | °C
As of 8:58 PM on Sunday 23 Nov 2014 (Local Time) from KBAD Reporting Station
Clear Clear  
Wind Chill: 65°   Ceiling: Unl
Heat Index: 65°   Visibility: 10mi
Dew Point: 53°   Wind: 10mph
Humidity: 65%   Direction: 230°SW
Pressure: 29.56"   Gusts: NA
Location:  32.35°N, 93.55°W
Report Text: KBAD 240258Z AUTO 23009KT 10SM CLR 18/12 A2956 RMK AO2 SLP012 T01830116 52031
Loading
Personal Weather Stations






























Interactive Weather Map New forecast layout! Learn more

10-Day Weather Forecast

Advertisements
Track Severe Weather on mobile